Time;durP1;ratioP1;P1;durP2;ratioP2;P2;SDS_P1;SDS_P2;PMS_P1;PMS_P2;Temp;Humidity;BMP_temperature;BMP_pressure;BME280_temperature;BME280_humidity;BME280_pressure;Samples;Min_cycle;Max_cycle;Signal;HPM_P1;HPM_P2
2021/08/03 00:01:28;;;;;;;1.80;1.45;;;;;;;9.01;86.09;90829.19;5000960;28;20075;-86
2021/08/03 00:04:17;;;;;;;2.72;1.27;;;;;;;9.00;85.75;90825.06;5016110;28;20021;-87
2021/08/03 00:06:57;;;;;;;1.85;1.17;;;;;;;9.00;85.64;90823.22;5018236;28;20021;-86
2021/08/03 00:09:37;;;;;;;3.35;1.17;;;;;;;8.93;85.35;90820.38;5016183;28;20029;-86
2021/08/03 00:12:13;;;;;;;1.25;0.80;;;;;;;8.97;85.26;90821.25;5016808;28;20032;-86
2021/08/03 00:14:58;;;;;;;1.23;0.98;;;;;;;8.94;85.04;90811.53;5016948;28;20401;-85
2021/08/03 00:17:40;;;;;;;2.95;1.15;;;;;;;8.94;85.29;90808.94;5017316;28;20028;-86
2021/08/03 00:20:22;;;;;;;5.90;1.38;;;;;;;8.91;84.87;90801.78;5000793;28;20538;-86
2021/08/03 00:23:02;;;;;;;1.70;1.20;;;;;;;8.75;85.37;90803.44;5015765;28;20029;-86
2021/08/03 00:25:42;;;;;;;3.05;1.02;;;;;;;8.90;84.84;90800.22;5016066;28;20117;-86
2021/08/03 00:28:19;;;;;;;1.70;1.13;;;;;;;8.67;84.70;90791.28;5031641;28;20041;-86
2021/08/03 00:30:56;;;;;;;1.48;1.00;;;;;;;8.59;84.87;90796.22;5031159;28;20025;-86
2021/08/03 00:33:36;;;;;;;1.63;1.20;;;;;;;8.57;84.39;90798.38;5016038;28;20025;-86
2021/08/03 00:36:16;;;;;;;2.58;0.95;;;;;;;8.50;84.57;90800.72;5015988;28;20060;-86
2021/08/03 00:38:54;;;;;;;1.63;0.90;;;;;;;8.52;84.04;90798.56;5031059;28;20026;-86
2021/08/03 00:41:36;;;;;;;1.23;0.90;;;;;;;8.40;84.55;90797.75;5031258;28;20458;-86
2021/08/03 00:44:13;;;;;;;2.65;0.93;;;;;;;8.32;84.24;90794.88;5031345;28;20036;-86
2021/08/03 00:46:48;;;;;;;1.50;0.88;;;;;;;8.35;84.13;90796.06;5033148;28;20021;-86
2021/08/03 00:49:26;;;;;;;1.67;1.00;;;;;;;8.21;85.33;90790.38;5015459;28;20026;-86
2021/08/03 00:52:03;;;;;;;2.83;0.90;;;;;;;8.34;84.44;90786.78;5015609;28;20478;-86
2021/08/03 00:54:33;;;;;;;4.40;1.20;;;;;;;8.17;85.69;90797.28;5015013;28;20033;-86
2021/08/03 00:57:08;;;;;;;2.00;1.10;;;;;;;8.29;85.37;90789.53;5015313;28;20026;-87
2021/08/03 00:59:50;;;;;;;1.63;1.00;;;;;;;8.21;86.02;90790.38;5015241;28;20025;-86
2021/08/03 01:02:28;;;;;;;1.10;0.90;;;;;;;8.17;85.68;90792.84;5015611;28;20029;-86
2021/08/03 01:05:05;;;;;;;2.13;1.42;;;;;;;8.12;85.53;90795.59;4999911;28;20026;-86
2021/08/03 01:10:28;;;;;;;1.42;0.98;;;;;;;8.02;85.74;90788.19;5084564;23;20076;-86
2021/08/03 01:13:20;;;;;;;3.50;1.10;;;;;;;8.03;86.32;90793.06;5019737;28;20061;-86
2021/08/03 01:16:18;;;;;;;2.00;1.02;;;;;;;8.05;85.55;90792.75;5005468;28;20030;-86
2021/08/03 01:19:05;;;;;;;2.80;1.25;;;;;;;8.01;85.66;90789.25;5037216;28;20071;-86
2021/08/03 01:22:03;;;;;;;2.17;1.17;;;;;;;8.02;85.57;90788.19;5016308;28;20021;-84
2021/08/03 01:24:50;;;;;;;1.35;0.90;;;;;;;8.07;85.33;90788.78;5044073;28;20021;-85
2021/08/03 01:27:36;;;;;;;2.15;1.15;;;;;;;8.03;86.02;90787.88;4998037;28;20017;-85
2021/08/03 01:30:09;;;;;;;4.85;1.65;;;;;;;8.02;86.37;90778.59;5014238;28;20022;-84
2021/08/03 01:32:48;;;;;;;2.53;1.00;;;;;;;8.06;86.47;90774.28;4982382;28;20424;-84
2021/08/03 01:35:25;;;;;;;3.92;1.00;;;;;;;7.94;87.19;90776.03;4983266;28;20026;-85
2021/08/03 01:37:58;;;;;;;3.17;1.20;;;;;;;7.95;86.79;90774.94;4982709;28;20482;-84
2021/08/03 01:40:35;;;;;;;2.15;0.98;;;;;;;7.92;86.69;90776.34;4981880;28;20036;-84
2021/08/03 01:43:16;;;;;;;3.25;1.20;;;;;;;7.89;86.74;90775.13;4997773;28;20032;-84
2021/08/03 01:45:54;;;;;;;2.30;1.02;;;;;;;7.98;86.26;90777.66;4981867;28;20022;-86
2021/08/03 01:48:28;;;;;;;1.42;0.80;;;;;;;7.86;86.47;90775.75;4966347;28;20037;-87
2021/08/03 01:51:02;;;;;;;2.97;1.00;;;;;;;7.83;86.20;90770.44;4998375;28;20029;-84
2021/08/03 01:53:37;;;;;;;2.35;1.17;;;;;;;7.96;87.36;90779.09;4981752;28;20030;-84
2021/08/03 01:56:18;;;;;;;1.42;1.10;;;;;;;8.03;86.64;90784.53;4981400;28;20120;-85
2021/08/03 01:58:56;;;;;;;1.90;1.10;;;;;;;8.08;86.55;90779.91;4983566;28;20409;-84
2021/08/03 02:01:39;;;;;;;1.38;0.90;;;;;;;8.04;85.95;90771.22;4999097;28;20051;-85
2021/08/03 02:04:14;;;;;;;2.10;1.03;;;;;;;7.94;85.53;90768.25;4967453;28;20437;-84
2021/08/03 02:06:53;;;;;;;1.50;1.10;;;;;;;7.89;84.99;90769.19;4966214;28;20482;-85
2021/08/03 02:09:31;;;;;;;2.17;0.90;;;;;;;7.79;84.78;90762.53;4982523;28;20022;-85
2021/08/03 02:12:09;;;;;;;2.13;0.90;;;;;;;7.76;84.69;90762.41;4983419;28;20030;-86
2021/08/03 02:14:51;;;;;;;1.50;0.90;;;;;;;7.71;84.66;90762.59;4983467;28;20026;-86
2021/08/03 02:17:28;;;;;;;2.10;1.10;;;;;;;7.69;84.85;90756.94;4968767;28;20037;-86
2021/08/03 02:20:05;;;;;;;7.15;1.58;;;;;;;7.58;85.98;90754.69;4983053;28;20030;-86
2021/08/03 02:22:44;;;;;;;1.60;0.90;;;;;;;7.56;85.21;90756.06;4967234;28;20370;-85
2021/08/03 02:25:19;;;;;;;4.13;0.90;;;;;;;7.50;84.76;90749.56;4985334;28;20128;-86
2021/08/03 02:27:57;;;;;;;3.85;1.10;;;;;;;7.48;84.70;90747.28;4985815;28;20393;-86
2021/08/03 02:30:36;;;;;;;1.58;1.00;;;;;;;7.51;85.06;90744.06;5003005;28;20104;-86
2021/08/03 02:33:28;;;;;;;1.88;0.88;;;;;;;7.32;86.19;90736.69;5003262;28;20049;-86
2021/08/03 02:36:11;;;;;;;1.55;1.05;;;;;;;7.30;86.89;90736.22;5005261;28;20059;-85
2021/08/03 02:38:47;;;;;;;2.33;1.10;;;;;;;7.27;86.63;90730.91;5015159;28;20029;-84
2021/08/03 02:41:26;;;;;;;2.60;1.35;;;;;;;7.37;86.80;90731.31;4991328;28;20045;-84
2021/08/03 02:44:06;;;;;;;2.47;1.02;;;;;;;7.42;86.84;90720.03;5002558;28;20057;-85
2021/08/03 02:46:44;;;;;;;1.70;1.17;;;;;;;7.35;86.83;90714.53;5003366;28;20018;-85
2021/08/03 02:49:34;;;;;;;2.05;0.98;;;;;;;7.40;86.51;90716.97;4986012;28;20025;-85
2021/08/03 02:52:12;;;;;;;2.97;1.10;;;;;;;7.42;86.98;90718.19;5005506;28;20509;-85
2021/08/03 02:54:53;;;;;;;1.75;1.10;;;;;;;7.43;87.30;90716.34;5018685;28;20477;-84
2021/08/03 02:57:32;;;;;;;1.35;1.00;;;;;;;7.55;87.76;90723.44;5003973;28;20030;-86
2021/08/03 03:00:04;;;;;;;1.35;0.98;;;;;;;7.55;87.64;90720.84;5019031;28;20108;-86
2021/08/03 03:02:43;;;;;;;1.65;1.10;;;;;;;7.55;87.03;90724.19;5002585;28;20045;-86
2021/08/03 03:05:28;;;;;;;1.38;1.10;;;;;;;7.62;87.05;90719.28;5003838;28;20449;-85
2021/08/03 03:08:14;;;;;;;1.45;1.20;;;;;;;7.52;87.42;90709.25;5004132;28;20508;-85
2021/08/03 03:10:50;;;;;;;1.70;1.27;;;;;;;7.53;87.33;90710.06;5002828;28;20025;-86
2021/08/03 03:13:45;;;;;;;2.35;1.20;;;;;;;7.51;87.08;90707.75;4986427;28;20535;-86
2021/08/03 03:16:24;;;;;;;1.37;1.03;;;;;;;7.47;86.97;90701.69;5019000;28;20032;-86
2021/08/03 03:19:03;;;;;;;4.70;1.02;;;;;;;7.36;86.74;90701.28;5004701;28;20022;-86
2021/08/03 03:21:43;;;;;;;1.50;1.10;;;;;;;7.36;86.97;90698.69;4987631;28;20124;-86
2021/08/03 03:24:20;;;;;;;1.38;1.00;;;;;;;7.41;86.68;90702.91;5006805;28;20056;-86
2021/08/03 03:26:58;;;;;;;3.05;1.20;;;;;;;7.41;86.35;90700.34;5021120;28;20024;-87
2021/08/03 03:29:30;;;;;;;2.72;0.90;;;;;;;7.40;86.71;90702.16;5007801;28;20060;-85
2021/08/03 03:31:58;;;;;;;2.67;0.95;;;;;;;7.37;87.33;90697.59;5004551;28;20090;-86
2021/08/03 03:34:35;;;;;;;1.60;1.20;;;;;;;7.44;86.83;90707.50;5012684;28;20027;-85
2021/08/03 03:37:14;;;;;;;5.03;1.10;;;;;;;7.40;87.19;90696.22;4994564;28;20029;-85
2021/08/03 03:39:49;;;;;;;2.88;1.30;;;;;;;7.38;87.56;90693.19;4998407;28;20059;-86
2021/08/03 03:42:17;;;;;;;;;;;;;;;7.39;87.44;90699.91;5002061;28;20109;-84
2021/08/03 03:44:54;;;;;;;1.38;1.02;;;;;;;7.37;87.04;90691.66;5017518;28;19963;-84
2021/08/03 03:47:41;;;;;;;2.15;1.20;;;;;;;7.43;87.49;90685.22;5002298;28;20029;-83
2021/08/03 03:50:18;;;;;;;1.48;1.23;;;;;;;7.57;88.01;90697.97;4983046;28;20022;-84
2021/08/03 03:53:02;;;;;;;2.30;1.85;;;;;;;7.50;87.98;90682.91;4965850;28;20026;-84
2021/08/03 03:55:37;;;;;;;1.55;1.30;;;;;;;7.62;88.07;90697.78;4997711;28;20581;-83
2021/08/03 03:58:20;;;;;;;2.95;1.58;;;;;;;7.62;88.48;90695.94;4997507;28;20045;-85
2021/08/03 04:01:00;;;;;;;3.70;1.35;;;;;;;7.61;88.92;90699.63;4981496;28;20034;-84
2021/08/03 04:03:50;;;;;;;2.45;1.60;;;;;;;7.59;88.64;90693.97;4965093;28;20084;-84
2021/08/03 04:06:25;;;;;;;1.52;1.10;;;;;;;7.68;87.65;90693.94;5014348;28;20028;-84
2021/08/03 04:09:07;;;;;;;1.70;1.20;;;;;;;7.58;87.25;90700.25;5018249;28;20026;-84
2021/08/03 04:11:54;;;;;;;3.28;1.23;;;;;;;7.65;87.60;90692.72;4999824;28;20037;-85
2021/08/03 04:14:33;;;;;;;2.67;1.23;;;;;;;7.64;88.09;90696.41;4984066;28;20026;-84
2021/08/03 04:17:08;;;;;;;2.80;1.38;;;;;;;7.69;88.22;90690.25;4983975;28;20053;-84
2021/08/03 04:19:50;;;;;;;4.07;1.27;;;;;;;7.78;88.34;90695.41;4966947;28;20457;-85
2021/08/03 04:22:28;;;;;;;2.15;1.35;;;;;;;7.81;88.74;90697.34;4967574;28;20026;-85
2021/08/03 04:25:10;;;;;;;2.08;1.45;;;;;;;7.85;88.98;90696.41;4984697;28;20032;-85
2021/08/03 04:27:51;;;;;;;1.98;1.50;;;;;;;7.90;88.76;90692.88;5001994;28;20497;-85
2021/08/03 04:30:31;;;;;;;2.35;1.67;;;;;;;8.02;89.84;90692.16;5002950;28;20030;-85
2021/08/03 04:33:05;;;;;;;2.75;1.17;;;;;;;8.00;89.79;90687.31;4987120;28;20045;-83
2021/08/03 04:35:33;;;;;;;;;;;;;;;8.15;90.20;90691.91;5002710;28;20032;-84
2021/08/03 04:38:09;;;;;;;1.90;1.50;;;;;;;8.21;89.75;90689.13;5018241;28;19917;-84
2021/08/03 04:40:49;;;;;;;3.70;1.60;;;;;;;8.27;90.70;90682.66;5002480;28;20030;-85
2021/08/03 04:43:28;;;;;;;2.30;1.73;;;;;;;8.42;90.86;90676.91;5002915;28;20021;-84
2021/08/03 04:46:06;;;;;;;4.78;1.73;;;;;;;8.44;90.84;90674.72;5002649;28;20383;-85
2021/08/03 04:48:46;;;;;;;3.40;1.80;;;;;;;8.70;90.42;90671.16;5002182;28;20022;-84
2021/08/03 04:51:22;;;;;;;2.10;1.50;;;;;;;8.69;89.67;90659.22;5002250;28;20470;-84
2021/08/03 04:53:58;;;;;;;3.65;1.50;;;;;;;8.74;89.70;90653.81;5019280;28;20068;-85
2021/08/03 04:56:41;;;;;;;3.85;1.75;;;;;;;8.89;89.73;90660.22;5002370;28;20036;-84
2021/08/03 04:59:19;;;;;;;2.47;1.40;;;;;;;8.90;89.36;90662.50;5003234;28;20116;-85
2021/08/03 05:01:59;;;;;;;3.20;1.63;;;;;;;8.95;89.12;90661.53;5003178;28;20049;-85
2021/08/03 05:04:37;;;;;;;5.38;1.58;;;;;;;9.02;89.10;90648.78;5002597;28;20083;-86
2021/08/03 05:07:14;;;;;;;2.63;1.80;;;;;;;9.06;89.00;90663.38;5018453;28;20025;-86
2021/08/03 05:09:54;;;;;;;2.15;1.65;;;;;;;9.10;88.78;90656.47;5001929;28;20057;-84
2021/08/03 05:12:34;;;;;;;3.50;1.70;;;;;;;9.27;88.80;90652.13;5002182;28;20084;-84
2021/08/03 05:15:11;;;;;;;1.80;1.45;;;;;;;9.40;88.61;90660.69;5002671;28;20033;-86
2021/08/03 05:17:48;;;;;;;2.72;1.63;;;;;;;9.49;88.79;90664.69;5018778;28;20432;-85
2021/08/03 05:20:27;;;;;;;2.63;1.70;;;;;;;9.51;89.04;90657.31;5002530;28;20481;-85
2021/08/03 05:22:58;;;;;;;2.05;1.42;;;;;;;9.63;89.12;90666.19;4986181;28;20025;-85
2021/08/03 05:25:33;;;;;;;3.22;1.88;;;;;;;9.76;88.84;90667.69;4998930;28;20030;-85
2021/08/03 05:28:08;;;;;;;2.42;1.50;;;;;;;9.87;88.70;90673.97;4999294;28;20026;-86
2021/08/03 05:30:41;;;;;;;2.38;1.60;;;;;;;9.90;88.55;90683.72;4984114;28;20062;-85
2021/08/03 05:33:18;;;;;;;4.82;1.60;;;;;;;9.93;88.31;90677.06;4983249;28;20041;-86
2021/08/03 05:35:58;;;;;;;2.92;1.42;;;;;;;9.98;88.57;90685.44;5017048;28;20026;-86
2021/08/03 05:38:33;;;;;;;2.00;1.55;;;;;;;10.06;88.09;90673.38;5001631;28;20049;-86
2021/08/03 05:41:14;;;;;;;2.60;1.67;;;;;;;10.20;87.62;90678.22;4983691;28;20076;-86
2021/08/03 05:43:49;;;;;;;3.28;1.70;;;;;;;10.33;87.26;90679.72;4985047;28;20026;-87
2021/08/03 05:46:28;;;;;;;4.57;1.80;;;;;;;10.55;87.01;90670.63;4973504;28;20030;-85
2021/08/03 05:49:04;;;;;;;5.40;1.50;;;;;;;10.62;86.67;90664.84;4997581;28;20026;-85
2021/08/03 05:51:45;;;;;;;3.53;1.67;;;;;;;10.72;87.01;90675.53;4985250;28;20030;-87
2021/08/03 05:54:24;;;;;;;2.03;1.70;;;;;;;10.91;86.65;90682.69;4971623;28;20485;-86
2021/08/03 05:56:57;;;;;;;1.90;1.48;;;;;;;10.97;86.63;90676.16;4999570;28;20030;-86
2021/08/03 05:59:33;;;;;;;2.37;1.70;;;;;;;11.04;86.97;90688.59;4981815;28;20026;-87
2021/08/03 06:02:12;;;;;;;2.45;1.73;;;;;;;11.18;86.79;90688.19;4981353;28;20275;-86
2021/08/03 06:04:52;;;;;;;2.78;1.70;;;;;;;11.16;86.06;90674.72;4982228;28;20057;-84
2021/08/03 06:07:30;;;;;;;3.13;1.80;;;;;;;11.20;86.72;90686.00;4982053;28;20026;-86
2021/08/03 06:10:01;;;;;;;4.72;1.90;;;;;;;11.29;86.15;90683.97;4982666;28;20112;-85
2021/08/03 06:12:37;;;;;;;3.30;1.50;;;;;;;11.46;85.33;90686.25;4981596;28;20064;-87
2021/08/03 06:15:17;;;;;;;2.88;1.70;;;;;;;11.45;85.41;90686.59;4982487;28;20025;-86
2021/08/03 06:17:56;;;;;;;2.25;1.40;;;;;;;11.54;85.26;90697.59;4999036;28;20022;-86
2021/08/03 06:20:30;;;;;;;3.17;1.50;;;;;;;11.74;84.51;90695.81;4982679;28;20022;-86
2021/08/03 06:23:08;;;;;;;2.88;1.63;;;;;;;11.80;84.35;90697.09;4983365;28;20437;-86
2021/08/03 06:25:41;;;;;;;4.53;1.90;;;;;;;11.80;84.94;90694.47;5005754;28;20018;-86
2021/08/03 06:28:24;;;;;;;2.67;1.58;;;;;;;11.91;84.74;90690.25;5002164;28;20022;-86
2021/08/03 06:30:58;;;;;;;4.15;1.60;;;;;;;12.03;84.71;90693.84;5018661;28;20493;-86
2021/08/03 06:33:32;;;;;;;2.30;1.50;;;;;;;12.14;84.42;90690.34;4985668;28;20238;-85
2021/08/03 06:36:12;;;;;;;2.95;1.70;;;;;;;12.24;81.65;90686.44;5002735;28;20468;-86
2021/08/03 06:38:52;;;;;;;2.20;1.42;;;;;;;12.27;82.84;90695.47;5016924;28;20048;-86
2021/08/03 06:41:36;;;;;;;4.25;1.67;;;;;;;12.36;83.28;90694.13;4986519;28;20108;-85
2021/08/03 06:44:27;;;;;;;2.75;1.50;;;;;;;12.41;83.80;90699.09;5019135;28;20022;-87
2021/08/03 06:47:01;;;;;;;3.20;1.80;;;;;;;12.49;83.85;90697.38;5018745;28;20036;-86
2021/08/03 06:49:40;;;;;;;5.43;1.60;;;;;;;12.68;81.06;90694.00;4982810;28;20437;-86
2021/08/03 06:52:12;;;;;;;2.60;1.60;;;;;;;12.77;79.48;90699.78;4983865;28;20061;-86
2021/08/03 06:54:52;;;;;;;1.60;1.30;;;;;;;12.77;77.99;90710.25;4967613;28;20026;-86
2021/08/03 06:57:28;;;;;;;3.08;1.30;;;;;;;12.86;77.13;90705.56;4984800;28;20026;-86
2021/08/03 07:00:02;;;;;;;2.38;1.30;;;;;;;12.90;75.96;90703.75;4966590;28;20342;-86
2021/08/03 07:02:40;;;;;;;2.63;1.33;;;;;;;13.11;73.57;90694.78;4989137;28;20026;-88
2021/08/03 07:05:21;;;;;;;2.85;1.42;;;;;;;13.15;73.27;90701.59;4989333;28;20034;-87
2021/08/03 07:08:02;;;;;;;2.85;1.23;;;;;;;13.29;72.97;90687.25;4999191;28;20034;-85
2021/08/03 07:10:36;;;;;;;2.92;1.30;;;;;;;13.31;72.22;90687.66;5222281;23;20049;-87
2021/08/03 07:13:13;;;;;;;1.92;1.25;;;;;;;13.39;72.76;90692.66;5031439;28;20029;-87
2021/08/03 07:15:47;;;;;;;3.88;1.33;;;;;;;13.56;74.52;90704.50;5031872;28;20038;-87
2021/08/03 07:18:25;;;;;;;1.85;1.25;;;;;;;13.69;75.18;90699.09;5034840;28;20021;-88
2021/08/03 07:20:53;;;;;;;2.97;1.40;;;;;;;13.79;74.02;90709.72;5030615;28;20042;-87
2021/08/03 07:23:35;;;;;;;3.10;1.25;;;;;;;13.92;71.18;90699.78;5016595;28;20049;-84
2021/08/03 07:26:08;;;;;;;2.28;1.27;;;;;;;13.78;68.61;90702.19;5013759;28;20029;-84
2021/08/03 07:28:53;;;;;;;2.05;1.20;;;;;;;13.84;70.18;90690.31;5015549;28;20037;-85
2021/08/03 07:31:27;;;;;;;2.95;1.30;;;;;;;13.83;69.79;90694.81;5012920;28;20100;-86
2021/08/03 07:34:09;;;;;;;2.95;1.35;;;;;;;13.84;71.29;90691.06;5003811;28;20034;-87
2021/08/03 07:36:45;;;;;;;2.03;1.10;;;;;;;13.77;70.58;90687.59;4998582;28;20050;-87
2021/08/03 07:39:15;;;;;;;2.30;1.15;;;;;;;13.97;72.34;90690.88;5013122;28;20038;-86
2021/08/03 07:41:58;;;;;;;1.83;1.20;;;;;;;14.12;70.49;90687.34;4980775;28;20026;-88
2021/08/03 07:44:34;;;;;;;2.85;1.40;;;;;;;14.10;70.26;90686.97;5013924;28;20034;-87
2021/08/03 07:47:16;;;;;;;1.65;1.00;;;;;;;14.23;68.95;90682.22;4997139;28;20089;-87
2021/08/03 07:49:57;;;;;;;2.20;1.10;;;;;;;14.26;68.24;90684.16;4996024;28;20457;-88
2021/08/03 07:52:36;;;;;;;3.22;1.20;;;;;;;14.17;70.53;90692.28;4997293;28;20026;-87
2021/08/03 07:55:14;;;;;;;1.65;1.02;;;;;;;14.38;68.77;90693.66;4997176;28;20053;-87
2021/08/03 07:57:51;;;;;;;2.13;1.15;;;;;;;14.40;68.58;90694.06;4997614;28;20026;-87
2021/08/03 08:00:28;;;;;;;1.80;1.10;;;;;;;14.47;68.14;90696.78;4996745;28;20022;-84
2021/08/03 08:03:06;;;;;;;1.50;1.10;;;;;;;14.51;68.36;90690.47;5015984;28;20026;-85
2021/08/03 08:05:43;;;;;;;1.67;1.27;;;;;;;14.52;66.90;90699.09;4998043;28;20474;-84
2021/08/03 08:08:21;;;;;;;1.60;1.17;;;;;;;14.60;67.14;90700.72;5030650;28;20021;-87
2021/08/03 08:10:53;;;;;;;19.98;4.50;;;;;;;14.42;68.51;90704.97;5013402;28;20030;-84
2021/08/03 08:13:29;;;;;;;5.93;1.75;;;;;;;14.35;69.88;90695.13;5013996;28;20022;-87
2021/08/03 08:15:59;;;;;;;2.75;1.13;;;;;;;14.15;68.51;90704.97;5014499;28;20053;-87
2021/08/03 08:18:37;;;;;;;3.60;1.30;;;;;;;14.23;68.47;90693.47;5013147;28;20022;-86
2021/08/03 08:21:10;;;;;;;1.80;1.10;;;;;;;14.04;68.33;90691.72;5013273;28;20117;-87
2021/08/03 08:23:45;;;;;;;1.70;1.30;;;;;;;13.95;68.93;90700.94;5013180;28;20025;-87
2021/08/03 08:26:27;;;;;;;1.63;1.00;;;;;;;14.10;68.67;90694.81;5029160;28;20057;-87
2021/08/03 08:29:00;;;;;;;1.98;1.30;;;;;;;14.17;67.94;90681.81;5010071;28;20025;-87
2021/08/03 08:31:34;;;;;;;1.45;1.10;;;;;;;14.30;67.61;90683.06;5007620;28;20026;-86
2021/08/03 08:34:13;;;;;;;2.58;1.30;;;;;;;14.34;67.11;90678.63;5010986;28;20089;-87
2021/08/03 08:36:56;;;;;;;1.95;1.10;;;;;;;14.25;66.14;90680.78;5019414;28;20033;-86
2021/08/03 08:39:32;;;;;;;2.75;1.10;;;;;;;14.26;66.31;90676.28;5013375;28;20029;-87
2021/08/03 08:42:10;;;;;;;1.33;1.10;;;;;;;14.22;67.25;90678.88;4996888;28;20033;-86
2021/08/03 08:44:47;;;;;;;2.67;1.08;;;;;;;14.20;67.98;90685.56;4996901;28;20474;-86
2021/08/03 08:47:23;;;;;;;2.78;1.40;;;;;;;14.08;68.06;90687.28;4996176;28;20453;-87
2021/08/03 08:50:02;;;;;;;3.47;1.30;;;;;;;14.12;67.95;90679.47;4995633;28;20018;-86
2021/08/03 08:52:37;;;;;;;2.00;1.20;;;;;;;13.82;71.21;90680.22;4979859;28;20033;-87
2021/08/03 08:55:17;;;;;;;3.38;1.48;;;;;;;13.79;70.68;90693.25;4979703;28;20026;-86
2021/08/03 08:57:51;;;;;;;2.33;1.40;;;;;;;13.63;71.22;90696.00;4979805;28;20030;-86
2021/08/03 09:00:28;;;;;;;2.25;1.08;;;;;;;13.71;70.94;90710.72;4995445;28;20096;-87
2021/08/03 09:03:01;;;;;;;1.85;1.20;;;;;;;13.66;72.92;90723.34;5012755;28;20022;-86
2021/08/03 09:05:42;;;;;;;5.93;1.63;;;;;;;13.53;74.26;90714.91;4995853;28;20021;-87
2021/08/03 09:08:18;;;;;;;1.67;1.45;;;;;;;13.42;76.50;90714.00;4995805;28;20026;-88
2021/08/03 09:10:59;;;;;;;2.92;1.40;;;;;;;13.72;77.59;90717.47;4994994;28;20038;-87
2021/08/03 09:13:40;;;;;;;2.75;1.23;;;;;;;13.54;75.43;90717.19;4994541;28;20069;-87
2021/08/03 09:16:18;;;;;;;3.45;1.48;;;;;;;13.45;76.96;90705.44;4995309;28;20028;-87
2021/08/03 09:19:04;;;;;;;1.73;1.20;;;;;;;13.69;74.50;90712.94;4995429;28;20030;-88
2021/08/03 09:21:44;;;;;;;1.67;1.13;;;;;;;13.93;75.19;90701.31;5013109;28;20026;-86
2021/08/03 09:24:26;;;;;;;2.42;1.20;;;;;;;13.87;73.46;90702.72;4995604;28;20044;-86
2021/08/03 09:27:06;;;;;;;1.73;1.05;;;;;;;13.96;73.76;90705.09;4979062;28;20022;-86
2021/08/03 09:29:52;;;;;;;1.30;1.10;;;;;;;14.07;73.35;90711.25;4963645;28;20291;-86
2021/08/03 09:32:38;;;;;;;1.48;1.02;;;;;;;14.06;72.65;90709.72;4979935;28;20021;-87
2021/08/03 09:35:11;;;;;;;1.90;1.08;;;;;;;13.99;73.71;90699.13;4995216;28;20037;-87
2021/08/03 09:37:47;;;;;;;2.38;1.15;;;;;;;14.15;70.79;90702.34;5011990;28;20029;-86
2021/08/03 09:40:24;;;;;;;1.50;1.23;;;;;;;14.44;72.12;90697.47;4963336;28;20038;-87
2021/08/03 09:43:16;;;;;;;1.73;1.20;;;;;;;14.63;71.80;90694.75;4962501;28;20033;-86
2021/08/03 09:45:55;;;;;;;1.55;1.23;;;;;;;14.71;71.86;90701.59;4978542;28;20441;-86
2021/08/03 09:48:35;;;;;;;3.15;0.98;;;;;;;14.78;68.77;90699.03;5012122;28;20030;-87
2021/08/03 09:51:17;;;;;;;1.63;0.90;;;;;;;14.84;68.86;90704.72;4991194;28;20026;-86
2021/08/03 09:53:56;;;;;;;0.93;0.80;;;;;;;14.91;67.87;90698.78;4992388;28;20022;-86
2021/08/03 09:56:34;;;;;;;3.50;1.10;;;;;;;14.64;66.47;90696.25;4975633;28;20026;-86
2021/08/03 09:59:10;;;;;;;1.10;0.80;;;;;;;14.32;69.32;90696.59;4974388;28;20022;-87
2021/08/03 10:01:49;;;;;;;1.05;0.70;;;;;;;14.28;71.24;90706.28;4974730;28;20281;-87
2021/08/03 10:04:26;;;;;;;1.95;1.10;;;;;;;14.28;70.49;90700.28;4991255;28;20053;-86
2021/08/03 10:07:01;;;;;;;2.15;1.10;;;;;;;14.30;72.34;90690.19;4974750;28;20030;-87
2021/08/03 10:09:40;;;;;;;1.60;1.15;;;;;;;14.00;71.15;90698.03;4974580;28;20030;-86
2021/08/03 10:12:20;;;;;;;1.00;0.80;;;;;;;13.78;72.96;90697.75;4975156;28;20061;-86
2021/08/03 10:14:55;;;;;;;1.63;1.00;;;;;;;13.88;72.10;90704.97;4975253;28;20034;-86
2021/08/03 10:17:36;;;;;;;1.65;1.00;;;;;;;13.96;73.25;90700.63;4975288;28;20407;-86
2021/08/03 10:20:14;;;;;;;1.92;1.00;;;;;;;14.13;71.00;90701.94;4991984;28;20034;-87
2021/08/03 10:23:03;;;;;;;2.85;1.13;;;;;;;13.70;72.78;90708.44;4975149;28;20026;-86
2021/08/03 10:25:44;;;;;;;1.25;0.90;;;;;;;13.81;74.06;90704.13;4980080;28;20447;-87
2021/08/03 10:28:31;;;;;;;1.83;1.08;;;;;;;13.67;73.66;90711.75;4980184;28;20018;-87
2021/08/03 10:31:36;;;;;;;2.10;1.13;;;;;;;13.65;72.93;90701.66;4980469;28;20026;-86
2021/08/03 10:34:11;;;;;;;;;;;;;;;13.59;73.57;90719.50;4989374;28;20498;-87
2021/08/03 10:36:47;;;;;;;1.45;0.82;;;;;;;13.41;71.30;90722.97;4993763;28;19932;-86
2021/08/03 10:39:29;;;;;;;1.20;0.77;;;;;;;12.90;73.04;90732.53;4977982;28;20038;-87
2021/08/03 10:42:11;;;;;;;1.42;0.85;;;;;;;12.67;75.24;90719.38;4979092;28;20444;-86
2021/08/03 10:45:01;;;;;;;1.15;0.77;;;;;;;12.56;76.84;90722.91;4994521;28;20477;-87
2021/08/03 10:47:48;;;;;;;1.85;0.73;;;;;;;12.73;78.57;90716.50;4964635;28;20410;-86
2021/08/03 10:50:31;;;;;;;1.45;0.80;;;;;;;12.70;76.81;90710.09;5012160;28;20445;-85
2021/08/03 10:53:05;;;;;;;0.90;0.70;;;;;;;12.59;74.99;90720.38;4982298;28;20053;-87
2021/08/03 10:55:46;;;;;;;0.95;0.60;;;;;;;12.41;75.62;90722.63;4983273;28;20540;-86
2021/08/03 10:58:23;;;;;;;1.25;0.80;;;;;;;12.42;76.55;90718.91;4982878;28;20058;-86
2021/08/03 11:00:55;;;;;;;0.98;0.70;;;;;;;12.41;76.25;90722.63;5015380;28;20022;-86
2021/08/03 11:03:45;;;;;;;1.75;1.02;;;;;;;12.49;77.65;90722.78;4982836;28;20026;-87
2021/08/03 11:06:22;;;;;;;1.08;0.75;;;;;;;12.41;79.32;90717.41;5015264;28;20026;-87
2021/08/03 11:08:59;;;;;;;0.82;0.70;;;;;;;12.32;77.62;90706.38;5015132;28;20026;-86
2021/08/03 11:11:32;;;;;;;1.52;0.90;;;;;;;12.37;79.27;90700.91;4965923;28;20038;-86
2021/08/03 11:14:16;;;;;;;1.08;0.75;;;;;;;12.45;76.83;90699.19;4982400;28;20529;-87
2021/08/03 11:16:50;;;;;;;2.33;0.80;;;;;;;12.51;77.90;90684.75;4982078;28;20042;-87
2021/08/03 11:19:38;;;;;;;0.90;0.63;;;;;;;12.70;76.11;90683.97;4965588;28;20030;-86
2021/08/03 11:22:13;;;;;;;0.85;0.60;;;;;;;12.71;76.77;90682.84;4982396;28;20052;-87
2021/08/03 11:24:52;;;;;;;2.75;0.68;;;;;;;12.64;75.06;90672.25;4982721;28;20025;-85
2021/08/03 11:27:31;;;;;;;1.65;0.68;;;;;;;12.76;75.65;90672.13;4979192;28;20548;-86
2021/08/03 11:30:14;;;;;;;1.75;0.70;;;;;;;12.82;72.69;90686.41;4977940;28;20026;-86
2021/08/03 11:32:59;;;;;;;1.42;0.63;;;;;;;12.82;73.89;90675.94;4978899;28;20427;-86
2021/08/03 11:35:34;;;;;;;0.75;0.50;;;;;;;13.09;74.52;90670.81;4978422;28;20061;-86
2021/08/03 11:38:15;;;;;;;0.70;0.50;;;;;;;13.27;72.78;90671.88;4978119;28;20030;-86
2021/08/03 11:40:51;;;;;;;1.10;0.60;;;;;;;13.42;72.65;90653.78;4994955;28;20053;-86
2021/08/03 11:43:29;;;;;;;0.70;0.50;;;;;;;13.72;69.93;90659.84;4977624;28;20665;-86
2021/08/03 11:46:04;;;;;;;2.70;0.60;;;;;;;14.28;72.21;90656.47;4977339;28;20126;-87
2021/08/03 11:48:44;;;;;;;0.65;0.50;;;;;;;14.42;72.39;90657.78;4993681;28;20483;-86
2021/08/03 11:51:23;;;;;;;0.75;0.60;;;;;;;14.34;73.25;90665.53;4977468;28;20026;-86
2021/08/03 11:54:10;;;;;;;0.90;0.63;;;;;;;14.22;72.06;90665.75;4977661;28;20030;-86
2021/08/03 11:56:44;;;;;;;1.02;0.60;;;;;;;14.13;69.94;90654.03;4977633;28;20258;-86
2021/08/03 11:59:25;;;;;;;0.95;0.70;;;;;;;13.86;71.34;90654.81;4977131;28;20031;-85
2021/08/03 12:02:08;;;;;;;0.50;0.50;;;;;;;13.92;75.53;90672.84;4975864;28;20038;-86
2021/08/03 12:04:44;;;;;;;1.42;0.63;;;;;;;13.98;71.13;90674.06;4993743;28;20034;-86
2021/08/03 12:07:23;;;;;;;1.00;0.60;;;;;;;13.99;71.80;90672.94;4977673;28;20026;-86
2021/08/03 12:09:59;;;;;;;0.70;0.60;;;;;;;13.94;71.58;90668.00;4976821;28;20030;-86
2021/08/03 12:12:35;;;;;;;1.40;0.75;;;;;;;13.68;74.15;90668.78;4993405;28;20022;-86
2021/08/03 12:15:16;;;;;;;0.70;0.50;;;;;;;13.73;72.21;90674.47;4961300;28;20027;-86
2021/08/03 12:18:13;;;;;;;1.08;0.70;;;;;;;13.73;73.41;90677.06;4977884;28;20026;-87
2021/08/03 12:21:01;;;;;;;0.75;0.60;;;;;;;13.34;73.80;90682.47;4960930;28;20081;-86
2021/08/03 12:23:37;;;;;;;1.23;0.50;;;;;;;12.98;74.10;90683.72;4993419;28;20019;-86
2021/08/03 12:26:22;;;;;;;0.95;0.73;;;;;;;12.94;76.07;90674.31;4987370;28;20026;-86
2021/08/03 12:29:04;;;;;;;0.70;0.50;;;;;;;12.83;75.76;90669.63;4981230;28;20034;-86
2021/08/03 12:31:44;;;;;;;1.00;0.60;;;;;;;12.88;76.69;90664.13;4981251;28;20508;-86
2021/08/03 12:34:26;;;;;;;1.08;0.60;;;;;;;13.04;75.45;90664.03;4980437;28;20482;-86